createdAt,value
2023-02-19T00:02:12.798Z,97433.47
2023-02-19T00:04:39.708Z,97424.94
2023-02-19T00:07:06.631Z,97433.47
2023-02-19T00:09:33.640Z,97420.03
2023-02-19T00:12:00.813Z,97421.06
2023-02-19T00:14:28.282Z,97418.84
2023-02-19T00:17:00.164Z,97418.22
2023-02-19T00:19:28.340Z,97413.97
2023-02-19T00:21:57.819Z,97403.38
2023-02-19T00:24:24.934Z,97407.06
2023-02-19T00:26:52.204Z,97403.00
2023-02-19T00:29:21.134Z,97401.22
2023-02-19T00:31:48.272Z,97398.41
2023-02-19T00:34:15.414Z,97403.09
2023-02-19T00:36:42.941Z,97401.25
2023-02-19T00:39:12.133Z,97397.78
2023-02-19T00:41:39.255Z,97399.22
2023-02-19T00:44:07.663Z,97390.06
2023-02-19T00:46:34.616Z,97385.16
2023-02-19T00:49:04.046Z,97386.19
2023-02-19T00:51:32.309Z,97381.91
2023-02-19T00:54:00.002Z,97378.84
2023-02-19T00:56:27.026Z,97375.41
2023-02-19T00:58:54.092Z,97374.38
2023-02-19T01:01:21.468Z,97364.03
2023-02-19T01:03:48.687Z,97365.84
2023-02-19T01:06:17.461Z,97360.56
2023-02-19T01:08:44.841Z,97351.63
2023-02-19T01:11:12.874Z,97352.44
2023-02-19T01:13:40.198Z,97360.34
2023-02-19T01:16:09.415Z,97350.59
2023-02-19T01:18:38.469Z,97343.88
2023-02-19T01:21:08.080Z,97346.09
2023-02-19T01:23:36.103Z,97340.81
2023-02-19T01:26:07.350Z,97328.63
2023-02-19T01:28:34.494Z,97337.19
2023-02-19T01:31:05.667Z,97328.66
2023-02-19T01:33:35.616Z,97329.31
2023-02-19T01:36:06.584Z,97330.31
2023-02-19T01:38:33.792Z,97339.28
2023-02-19T01:41:05.388Z,97323.03
2023-02-19T01:43:33.146Z,97341.97
2023-02-19T01:46:00.186Z,97331.19
2023-02-19T01:48:29.972Z,97326.91
2023-02-19T01:50:59.760Z,97323.47
2023-02-19T01:53:28.622Z,97335.06
2023-02-19T01:55:58.072Z,97333.44
2023-02-19T01:58:28.299Z,97322.66
2023-02-19T02:00:58.838Z,97335.06
2023-02-19T02:03:26.149Z,97333.88
2023-02-19T02:05:57.795Z,97320.03
2023-02-19T02:08:44.350Z,97327.34
2023-02-19T02:11:11.612Z,97330.63
2023-02-19T02:13:39.458Z,97334.09
2023-02-19T02:16:32.503Z,97324.94
2023-02-19T02:19:02.778Z,97327.94
2023-02-19T02:21:40.961Z,97327.78
2023-02-19T02:24:08.448Z,97318.63
2023-02-19T02:26:44.055Z,97315.16
2023-02-19T02:29:23.135Z,97312.75
2023-02-19T02:32:04.466Z,97310.91
2023-02-19T02:34:37.149Z,97312.75
2023-02-19T02:37:04.848Z,97315.59
2023-02-19T02:39:32.614Z,97315.59
2023-02-19T02:42:20.287Z,97314.56
2023-02-19T02:45:16.373Z,97312.94
2023-02-19T02:47:55.344Z,97300.16
2023-02-19T02:50:25.264Z,97300.97
2023-02-19T02:53:15.070Z,97308.66
2023-02-19T02:55:44.209Z,97311.31
2023-02-19T02:58:12.362Z,97306.84
2023-02-19T03:01:00.065Z,97304.19
2023-02-19T03:03:28.048Z,97299.13
2023-02-19T03:05:58.968Z,97307.03
2023-02-19T03:08:38.303Z,97305.03
2023-02-19T03:11:29.574Z,97293.44
2023-02-19T03:14:21.375Z,97306.66
2023-02-19T03:17:09.111Z,97300.34
2023-02-19T03:19:40.052Z,97290.38
2023-02-19T03:22:10.985Z,97298.91
2023-02-19T03:25:15.270Z,97284.28
2023-02-19T03:27:43.782Z,97293.25
2023-02-19T03:30:24.711Z,97288.75
2023-02-19T03:32:58.182Z,97290.38
2023-02-19T03:35:27.475Z,97279.81
2023-02-19T03:37:54.541Z,97279.81
2023-02-19T03:40:24.436Z,97278.00
2023-02-19T03:42:56.186Z,97278.00
2023-02-19T03:45:29.610Z,97278.19
2023-02-19T03:48:05.944Z,97276.81
2023-02-19T03:50:44.784Z,97272.50
2023-02-19T03:53:23.264Z,97275.38
2023-02-19T03:55:59.495Z,97271.09
2023-02-19T03:58:31.401Z,97270.09
2023-02-19T04:00:58.473Z,97265.44
2023-02-19T04:03:29.723Z,97271.53
2023-02-19T04:06:02.084Z,97272.91
2023-02-19T04:08:30.178Z,97264.78
2023-02-19T04:11:03.541Z,97267.00
2023-02-19T04:13:37.279Z,97259.06
2023-02-19T04:16:09.101Z,97262.53
2023-02-19T04:18:41.228Z,97259.06
2023-02-19T04:21:09.528Z,97262.16
2023-02-19T04:23:40.201Z,97261.75
2023-02-19T04:26:08.214Z,97260.16
2023-02-19T04:28:42.408Z,97257.69
2023-02-19T04:31:09.700Z,97255.06
2023-02-19T04:33:38.116Z,97256.88
2023-02-19T04:36:05.703Z,97257.91
2023-02-19T04:38:32.628Z,97259.75
2023-02-19T04:41:03.023Z,97260.16
2023-02-19T04:43:29.903Z,97262.00
2023-02-19T04:45:59.798Z,97259.16
2023-02-19T04:48:26.842Z,97256.50
2023-02-19T04:50:53.934Z,97254.66
2023-02-19T04:53:21.034Z,97244.91
2023-02-19T04:55:48.686Z,97247.34
2023-02-19T04:58:15.711Z,97248.16
2023-02-19T05:00:42.507Z,97246.09
2023-02-19T05:03:09.420Z,97241.84
2023-02-19T05:05:37.389Z,97240.66
2023-02-19T05:08:04.268Z,97240.44
2023-02-19T05:10:31.298Z,97241.25
2023-02-19T05:12:58.226Z,97234.34
2023-02-19T05:15:25.380Z,97228.03
2023-02-19T05:17:52.461Z,97230.91
2023-02-19T05:20:19.497Z,97220.31
2023-02-19T05:22:46.688Z,97222.75
2023-02-19T05:25:13.795Z,97234.94
2023-02-19T05:27:40.815Z,97222.53
2023-02-19T05:30:08.098Z,97217.03
2023-02-19T05:32:35.325Z,97214.41
2023-02-19T05:35:02.309Z,97215.00
2023-02-19T05:37:29.392Z,97214.56
2023-02-19T05:39:56.317Z,97224.69
2023-02-19T05:42:28.251Z,97226.75
2023-02-19T05:44:55.673Z,97214.56
2023-02-19T05:47:22.764Z,97223.88
2023-02-19T05:49:56.652Z,97218.38
2023-02-19T05:52:23.909Z,97215.09
2023-02-19T05:54:52.356Z,97219.13
2023-02-19T05:57:20.611Z,97220.94
2023-02-19T05:59:50.014Z,97215.00
2023-02-19T06:02:42.826Z,97211.94
2023-02-19T06:05:10.228Z,97217.22
2023-02-19T06:07:39.973Z,97220.03
2023-02-19T06:10:07.293Z,97213.88
2023-02-19T06:12:34.238Z,97205.72
2023-02-19T06:15:01.119Z,97212.19
2023-02-19T06:17:28.019Z,97208.69
2023-02-19T06:19:54.938Z,97211.28
2023-02-19T06:22:25.350Z,97211.19
2023-02-19T06:24:52.417Z,97212.22
2023-02-19T06:27:19.817Z,97197.97
2023-02-19T06:29:51.624Z,97210.75
2023-02-19T06:32:19.257Z,97207.09
2023-02-19T06:34:49.502Z,97214.78
2023-02-19T06:39:58.616Z,97195.84
2023-02-19T06:42:31.859Z,97195.41
2023-02-19T06:44:59.017Z,97189.28
2023-02-19T06:47:33.033Z,97186.09
2023-02-19T06:50:00.827Z,97195.78
2023-02-19T06:52:28.406Z,97184.53
2023-02-19T06:54:59.783Z,97187.78
2023-02-19T06:57:28.264Z,97187.56
2023-02-19T06:59:55.230Z,97188.75
2023-02-19T07:02:23.772Z,97175.53
2023-02-19T07:04:54.438Z,97173.09
2023-02-19T07:07:28.091Z,97178.81
2023-02-19T07:09:54.890Z,97178.44
2023-02-19T07:12:21.709Z,97171.75
2023-02-19T07:14:48.587Z,97162.22
2023-02-19T07:17:15.505Z,97174.50
2023-02-19T07:19:42.411Z,97167.81
2023-02-19T07:22:09.268Z,97166.19
2023-02-19T07:24:36.261Z,97163.09
2023-02-19T07:27:03.210Z,97154.94
2023-02-19T07:29:29.906Z,97158.63
2023-02-19T07:31:56.747Z,97164.28
2023-02-19T07:34:23.642Z,97153.16
2023-02-19T07:36:50.459Z,97142.31
2023-02-19T07:39:17.334Z,97152.22
2023-02-19T07:41:44.298Z,97153.16
2023-02-19T07:44:23.176Z,97153.41
2023-02-19T07:46:50.013Z,97152.31
2023-02-19T07:49:16.837Z,97155.09
2023-02-19T07:51:45.713Z,97142.44
2023-02-19T07:54:18.413Z,97154.28
2023-02-19T07:56:45.286Z,97141.84
2023-02-19T07:59:12.654Z,97137.13
2023-02-19T08:01:58.340Z,97140.81
2023-02-19T08:04:26.006Z,97139.91
2023-02-19T08:06:53.066Z,97147.19
2023-02-19T08:09:19.944Z,97139.47
2023-02-19T08:12:05.518Z,97129.44
2023-02-19T08:14:35.178Z,97132.84
2023-02-19T08:17:03.584Z,97124.91
2023-02-19T08:19:38.747Z,97129.31
2023-02-19T08:25:21.384Z,97132.66
2023-02-19T08:27:51.705Z,97131.97
2023-02-19T08:30:19.285Z,97123.22
2023-02-19T08:32:51.424Z,97127.13
2023-02-19T08:35:26.543Z,97119.97
2023-02-19T08:38:20.976Z,97121.81
2023-02-19T08:40:58.481Z,97125.28
2023-02-19T08:43:26.057Z,97122.16
2023-02-19T08:45:56.658Z,97121.50
2023-02-19T08:48:28.960Z,97112.97
2023-02-19T08:51:01.120Z,97111.81
2023-02-19T08:56:41.186Z,97101.44
2023-02-19T09:02:23.265Z,97096.72
2023-02-19T09:04:51.699Z,97099.28
2023-02-19T09:07:27.450Z,97099.13
2023-02-19T09:09:56.080Z,97089.56
2023-02-19T09:12:38.035Z,97093.16
2023-02-19T09:18:02.859Z,97082.31
2023-02-19T09:20:33.705Z,97086.34
2023-02-19T09:23:02.532Z,97088.66
2023-02-19T09:25:39.063Z,97079.66
2023-02-19T09:28:19.878Z,97086.66
2023-02-19T09:37:04.394Z,97080.09
2023-02-19T09:40:31.762Z,97074.66
2023-02-19T09:43:36.323Z,97068.66
2023-02-19T09:46:26.174Z,97064.72
2023-02-19T09:49:26.222Z,97061.25
2023-02-19T09:52:10.851Z,97069.22
2023-02-19T09:54:38.978Z,97050.66
2023-02-19T09:57:11.872Z,97061.16
2023-02-19T09:59:46.898Z,97050.78
2023-02-19T10:02:17.001Z,97055.84
2023-02-19T10:04:45.815Z,97056.19
2023-02-19T10:07:20.210Z,97055.94
2023-02-19T10:10:10.278Z,97054.19
2023-02-19T10:12:38.279Z,97061.47
2023-02-19T10:15:26.444Z,97056.34
2023-02-19T10:18:08.258Z,97053.31
2023-02-19T10:21:20.412Z,97055.16
2023-02-19T10:23:58.018Z,97062.09
2023-02-19T10:26:26.817Z,97054.13
2023-02-19T10:29:01.637Z,97059.75
2023-02-19T10:31:42.350Z,97061.13
2023-02-19T10:34:21.839Z,97050.28
2023-02-19T10:36:52.146Z,97059.16
2023-02-19T10:39:24.252Z,97056.69
2023-02-19T10:42:05.204Z,97049.94
2023-02-19T10:44:43.640Z,97055.53
2023-02-19T10:47:23.370Z,97048.13
2023-02-19T10:49:59.116Z,97046.84
2023-02-19T10:52:31.385Z,97039.19
2023-02-19T10:55:18.915Z,97040.75
2023-02-19T10:57:55.509Z,97038.66
2023-02-19T11:00:30.805Z,97037.81
2023-02-19T11:03:18.938Z,97032.63
2023-02-19T11:06:00.463Z,97035.84
2023-02-19T11:08:40.078Z,97022.78
2023-02-19T11:11:07.245Z,97026.63
2023-02-19T11:13:38.311Z,97028.34
2023-02-19T11:16:06.255Z,97037.38
2023-02-19T11:18:39.046Z,97029.88
2023-02-19T11:21:07.949Z,97033.28
2023-02-19T11:23:37.679Z,97025.50
2023-02-19T11:26:07.001Z,97026.44
2023-02-19T11:28:40.780Z,97026.34
2023-02-19T11:31:15.686Z,97028.63
2023-02-19T11:33:59.722Z,97017.84
2023-02-19T11:36:30.279Z,97028.06
2023-02-19T11:38:59.071Z,97018.41
2023-02-19T11:41:45.376Z,97016.00
2023-02-19T11:44:12.417Z,97020.81
2023-02-19T11:46:39.452Z,97025.16
2023-02-19T11:49:32.948Z,97026.38
2023-02-19T11:52:00.258Z,97020.63
2023-02-19T11:54:30.613Z,97016.88
2023-02-19T11:57:07.399Z,97029.03
2023-02-19T11:59:41.813Z,97017.03
2023-02-19T12:02:24.957Z,97016.88
2023-02-19T12:04:52.187Z,97014.81
2023-02-19T12:07:38.105Z,97021.91
2023-02-19T12:10:17.590Z,97017.88
2023-02-19T12:13:02.965Z,97013.03
2023-02-19T12:15:33.104Z,97013.75
2023-02-19T12:18:00.301Z,97012.94
2023-02-19T12:20:33.665Z,97013.19
2023-02-19T12:23:09.858Z,97016.41
2023-02-19T12:25:51.964Z,97021.22
2023-02-19T12:28:26.706Z,97025.75
2023-02-19T12:31:03.361Z,97021.09
2023-02-19T12:33:43.423Z,97020.94
2023-02-19T12:36:13.650Z,97017.84
2023-02-19T12:38:45.988Z,97022.19
2023-02-19T12:41:22.341Z,97014.16
2023-02-19T12:44:09.832Z,97025.56
2023-02-19T12:46:38.943Z,97031.94
2023-02-19T12:49:14.417Z,97019.38
2023-02-19T12:51:55.340Z,97018.34
2023-02-19T12:54:23.958Z,97022.94
2023-02-19T12:56:51.153Z,97025.81
2023-02-19T12:59:44.496Z,97020.75
2023-02-19T13:02:31.798Z,97032.41
2023-02-19T13:05:01.776Z,97024.84
2023-02-19T13:07:34.192Z,97027.31
2023-02-19T13:10:06.692Z,97033.50
2023-02-19T13:12:37.319Z,97034.00
2023-02-19T13:15:07.690Z,97032.38
2023-02-19T13:17:39.137Z,97031.81
2023-02-19T13:20:22.310Z,97030.91
2023-02-19T13:23:15.761Z,97025.84
2023-02-19T13:26:04.357Z,97030.09
2023-02-19T13:28:31.515Z,97027.44
2023-02-19T13:31:24.070Z,97024.00
2023-02-19T13:33:57.481Z,97024.22
2023-02-19T13:36:27.647Z,97026.88
2023-02-19T13:38:59.104Z,97025.84
2023-02-19T13:41:41.867Z,97029.06
2023-02-19T13:44:22.797Z,97029.06
2023-02-19T13:46:50.781Z,97024.47
2023-02-19T13:49:30.063Z,97025.72
2023-02-19T13:52:23.571Z,97016.66
2023-02-19T13:54:51.571Z,97025.63
2023-02-19T13:57:18.682Z,97017.34
2023-02-19T13:59:46.512Z,97018.81
2023-02-19T14:02:26.668Z,97013.19
2023-02-19T14:04:55.700Z,97009.63
2023-02-19T14:07:34.937Z,97002.84
2023-02-19T14:10:02.179Z,97007.22
2023-02-19T14:12:39.361Z,97007.91
2023-02-19T14:15:40.081Z,97005.50
2023-02-19T14:18:25.799Z,96992.13
2023-02-19T14:21:06.516Z,96999.41
2023-02-19T14:23:33.451Z,96996.66
2023-02-19T14:26:01.433Z,96992.84
2023-02-19T14:28:36.432Z,96998.47
2023-02-19T14:31:23.662Z,96994.56
2023-02-19T14:33:52.468Z,96993.28
2023-02-19T14:36:44.351Z,97000.53
2023-02-19T14:39:24.429Z,96997.50
2023-02-19T14:41:53.090Z,97004.06
2023-02-19T14:44:25.993Z,96997.41
2023-02-19T14:46:58.999Z,96993.72
2023-02-19T14:49:48.978Z,96986.81
2023-02-19T14:52:20.003Z,96986.25
2023-02-19T14:54:54.089Z,96988.06
2023-02-19T14:57:27.451Z,96983.25
2023-02-19T14:59:59.142Z,96978.41
2023-02-19T15:02:27.576Z,96984.38
2023-02-19T15:04:55.752Z,96978.75
2023-02-19T15:07:26.420Z,96988.13
2023-02-19T15:09:57.256Z,96988.03
2023-02-19T15:12:26.935Z,96987.66
2023-02-19T15:15:02.853Z,96976.88
2023-02-19T15:17:31.518Z,96978.25
2023-02-19T15:20:00.568Z,96988.38
2023-02-19T15:22:28.615Z,96983.88
2023-02-19T15:24:58.214Z,96987.13
2023-02-19T15:27:25.689Z,96977.38
2023-02-19T15:29:53.731Z,96970.59
2023-02-19T15:32:26.783Z,96971.16
2023-02-19T15:34:58.287Z,96971.63
2023-02-19T15:37:28.753Z,96968.16
2023-02-19T15:39:59.064Z,96964.34
2023-02-19T15:42:26.209Z,96962.53
2023-02-19T15:44:57.220Z,96964.94
2023-02-19T15:47:33.913Z,96968.16
2023-02-19T15:50:21.633Z,96965.53
2023-02-19T15:52:59.427Z,96967.13
2023-02-19T15:55:45.402Z,96965.28
2023-02-19T15:58:15.352Z,96950.34
2023-02-19T16:00:52.251Z,96966.22
2023-02-19T16:03:21.877Z,96962.19
2023-02-19T16:06:12.039Z,96955.88
2023-02-19T16:08:42.381Z,96958.28
2023-02-19T16:11:26.987Z,96955.19
2023-02-19T16:14:13.790Z,96954.13
2023-02-19T16:16:41.865Z,96953.09
2023-02-19T16:19:10.025Z,96950.81
2023-02-19T16:21:37.207Z,96950.91
2023-02-19T16:24:08.229Z,96953.09
2023-02-19T16:26:56.140Z,96950.25
2023-02-19T16:29:29.102Z,96946.13
2023-02-19T16:31:59.723Z,96946.47
2023-02-19T16:34:47.289Z,96941.41
2023-02-19T16:37:35.580Z,96943.00
2023-02-19T16:40:10.151Z,96936.09
2023-02-19T16:43:07.849Z,96941.84
2023-02-19T16:45:37.081Z,96941.06
2023-02-19T16:48:04.968Z,96946.34
2023-02-19T16:53:31.308Z,96942.44
2023-02-19T16:56:03.838Z,96946.13
2023-02-19T16:59:18.220Z,96944.50
2023-02-19T17:01:48.177Z,96948.75
2023-02-19T17:04:16.199Z,96943.47
2023-02-19T17:06:51.494Z,96938.97
2023-02-19T17:09:32.640Z,96938.53
2023-02-19T17:12:01.159Z,96944.38
2023-02-19T17:14:35.331Z,96938.06
2023-02-19T17:17:06.290Z,96937.81
2023-02-19T17:19:39.575Z,96943.69
2023-02-19T17:22:08.192Z,96933.34
2023-02-19T17:25:04.638Z,96939.91
2023-02-19T17:30:35.355Z,96934.13
2023-02-19T17:34:02.449Z,96930.00
2023-02-19T17:37:01.279Z,96937.47
2023-02-19T17:39:34.604Z,96926.88
2023-02-19T17:42:21.489Z,96923.19
2023-02-19T17:44:51.548Z,96924.81
2023-02-19T17:47:22.097Z,96924.56
2023-02-19T17:49:52.587Z,96918.47
2023-02-19T17:52:20.170Z,96927.44
2023-02-19T17:54:48.142Z,96926.66
2023-02-19T17:57:17.078Z,96925.03
2023-02-19T17:59:44.330Z,96919.50
2023-02-19T18:02:11.501Z,96919.50
2023-02-19T18:04:48.716Z,96922.16
2023-02-19T18:07:16.796Z,96916.63
2023-02-19T18:09:54.634Z,96917.66
2023-02-19T18:12:22.277Z,96921.13
2023-02-19T18:14:49.509Z,96912.94
2023-02-19T18:17:19.664Z,96919.03
2023-02-19T18:19:54.377Z,96911.91
2023-02-19T18:22:47.681Z,96910.63
2023-02-19T18:25:17.957Z,96913.66
2023-02-19T18:27:45.038Z,96909.97
2023-02-19T18:30:12.987Z,96913.66
2023-02-19T18:32:42.590Z,96904.91
2023-02-19T18:35:11.016Z,96912.84
2023-02-19T18:37:38.782Z,96907.56
2023-02-19T18:40:07.712Z,96914.69
2023-02-19T18:42:35.777Z,96913.66
2023-02-19T18:47:52.918Z,96905.56
2023-02-19T18:50:20.901Z,96907.41
2023-02-19T18:52:48.265Z,96911.66
2023-02-19T18:55:15.702Z,96900.03
2023-02-19T18:57:43.070Z,96903.53
2023-02-19T19:00:17.623Z,96906.38
2023-02-19T19:02:49.648Z,96902.69
2023-02-19T19:05:21.101Z,96904.34
2023-02-19T19:07:49.055Z,96905.13
2023-02-19T19:10:16.336Z,96905.13
2023-02-19T19:12:43.237Z,96900.41
2023-02-19T19:15:11.467Z,96899.72
2023-02-19T19:17:38.956Z,96902.34
2023-02-19T19:20:06.169Z,96897.53
2023-02-19T19:22:33.464Z,96885.56
2023-02-19T19:25:00.760Z,96889.81
2023-02-19T19:27:37.262Z,96894.06
2023-02-19T19:30:50.061Z,96895.91
2023-02-19T19:33:17.661Z,96894.88
2023-02-19T19:35:44.988Z,96897.88
2023-02-19T19:38:12.686Z,96892.09
2023-02-19T19:40:42.462Z,96900.38
2023-02-19T19:43:10.003Z,96900.94
2023-02-19T19:45:37.986Z,96900.72
2023-02-19T19:48:08.063Z,96889.09
2023-02-19T19:50:39.422Z,96899.91
2023-02-19T19:53:06.655Z,96895.66
2023-02-19T19:55:36.247Z,96900.16
2023-02-19T19:58:04.754Z,96893.81
2023-02-19T20:00:31.953Z,96903.94
2023-02-19T20:02:59.134Z,96900.81
2023-02-19T20:05:26.609Z,96900.34
2023-02-19T20:07:55.007Z,96901.94
2023-02-19T20:10:22.337Z,96903.56
2023-02-19T20:12:49.400Z,96897.47
2023-02-19T20:15:23.127Z,96897.47
2023-02-19T20:17:50.352Z,96901.16
2023-02-19T20:20:21.768Z,96897.13
2023-02-19T20:22:49.602Z,96894.72
2023-02-19T20:25:16.861Z,96900.81
2023-02-19T20:27:43.956Z,96890.00
2023-02-19T20:30:12.258Z,96889.50
2023-02-19T20:32:39.417Z,96891.97
2023-02-19T20:35:06.482Z,96888.84
2023-02-19T20:37:33.309Z,96892.06
2023-02-19T20:40:01.642Z,96892.63
2023-02-19T20:42:31.630Z,96886.28
2023-02-19T20:44:58.750Z,96885.25
2023-02-19T20:47:25.813Z,96886.28
2023-02-19T20:49:52.952Z,96883.31
2023-02-19T20:52:25.302Z,96885.38
2023-02-19T20:55:00.830Z,96894.59
2023-02-19T20:57:28.023Z,96889.31
2023-02-19T20:59:55.438Z,96898.88
2023-02-19T21:02:27.978Z,96887.00
2023-02-19T21:04:58.423Z,96881.69
2023-02-19T21:07:25.794Z,96879.84
2023-02-19T21:09:53.069Z,96891.81
2023-02-19T21:12:21.127Z,96890.53
2023-02-19T21:14:48.601Z,96887.41
2023-02-19T21:17:19.661Z,96880.03
2023-02-19T21:19:50.592Z,96886.16
2023-02-19T21:22:17.807Z,96878.75
2023-02-19T21:24:45.322Z,96883.81
2023-02-19T21:27:12.534Z,96884.63
2023-02-19T21:29:41.959Z,96881.41
2023-02-19T21:32:15.213Z,96882.22
2023-02-19T21:34:46.596Z,96884.88
2023-02-19T21:37:13.624Z,96883.81
2023-02-19T21:39:42.955Z,96887.28
2023-02-19T21:42:12.483Z,96884.38
2023-02-19T21:44:44.857Z,96887.59
2023-02-19T21:47:15.074Z,96886.31
2023-02-19T21:50:10.135Z,96894.28
2023-02-19T21:52:37.308Z,96891.63
2023-02-19T21:55:06.322Z,96892.66
2023-02-19T21:57:37.206Z,96900.84
2023-02-19T22:00:05.711Z,96886.81
2023-02-19T22:02:32.993Z,96891.06
2023-02-19T22:05:00.109Z,96889.22
2023-02-19T22:07:27.255Z,96885.53
2023-02-19T22:09:54.310Z,96881.28
2023-02-19T22:12:21.301Z,96884.72
2023-02-19T22:14:48.636Z,96881.50
2023-02-19T22:17:15.518Z,96891.53
2023-02-19T22:19:42.575Z,96884.63
2023-02-19T22:22:10.086Z,96892.81
2023-02-19T22:24:36.996Z,96882.44
2023-02-19T22:27:03.907Z,96886.72
2023-02-19T22:29:30.811Z,96887.28
2023-02-19T22:31:57.903Z,96889.44
2023-02-19T22:34:25.174Z,96884.97
2023-02-19T22:36:52.252Z,96879.41
2023-02-19T22:39:24.342Z,96885.53
2023-02-19T22:41:51.881Z,96877.34
2023-02-19T22:44:19.250Z,96880.78
2023-02-19T22:46:56.124Z,96881.59
2023-02-19T22:49:23.433Z,96882.63
2023-02-19T22:52:03.767Z,96878.63
2023-02-19T22:54:30.729Z,96880.47
2023-02-19T22:56:57.741Z,96881.84
2023-02-19T22:59:24.571Z,96883.44
2023-02-19T23:01:51.786Z,96880.56
2023-02-19T23:04:20.090Z,96889.34
2023-02-19T23:06:49.763Z,96890.13
2023-02-19T23:09:18.233Z,96896.00
2023-02-19T23:11:45.791Z,96889.44
2023-02-19T23:14:15.383Z,96885.97
2023-02-19T23:16:42.349Z,96887.81
2023-02-19T23:19:11.655Z,96892.31
2023-02-19T23:21:40.365Z,96890.13
2023-02-19T23:24:07.904Z,96898.28
2023-02-19T23:26:34.971Z,96895.88
2023-02-19T23:29:02.164Z,96898.78
2023-02-19T23:31:29.295Z,96896.13
2023-02-19T23:33:56.218Z,96892.66
2023-02-19T23:36:24.115Z,96899.25
2023-02-19T23:38:54.012Z,96902.13
2023-02-19T23:41:20.856Z,96897.88
2023-02-19T23:43:48.124Z,96901.31
2023-02-19T23:46:17.658Z,96901.56
2023-02-19T23:48:45.398Z,96910.31
2023-02-19T23:51:12.867Z,96900.53
2023-02-19T23:53:40.035Z,96903.19
2023-02-19T23:56:07.289Z,96907.19
2023-02-19T23:58:34.322Z,96900.63
